sensor_id;sensor_type;location;lat;lon;timestamp;P1;durP1;ratioP1;P2;durP2;ratioP2
66707;SDS011;53622;0.000;0.000;2023-02-01T00:02:00;26.30;;;24.05;;
66707;SDS011;53622;0.000;0.000;2023-02-01T00:04:29;28.80;;;26.30;;
66707;SDS011;53622;0.000;0.000;2023-02-01T00:06:59;30.80;;;28.17;;
66707;SDS011;53622;0.000;0.000;2023-02-01T00:09:28;25.45;;;23.17;;
66707;SDS011;53622;0.000;0.000;2023-02-01T00:11:59;25.95;;;23.63;;
66707;SDS011;53622;0.000;0.000;2023-02-01T00:14:29;27.88;;;25.38;;
66707;SDS011;53622;0.000;0.000;2023-02-01T00:17:05;25.77;;;23.48;;
66707;SDS011;53622;0.000;0.000;2023-02-01T00:19:34;24.90;;;22.70;;
66707;SDS011;53622;0.000;0.000;2023-02-01T00:22:04;28.08;;;25.67;;
66707;SDS011;53622;0.000;0.000;2023-02-01T00:24:33;25.52;;;23.23;;
66707;SDS011;53622;0.000;0.000;2023-02-01T00:27:04;26.75;;;24.38;;
66707;SDS011;53622;0.000;0.000;2023-02-01T00:29:33;27.70;;;25.30;;
66707;SDS011;53622;0.000;0.000;2023-02-01T00:32:03;27.02;;;24.67;;
66707;SDS011;53622;0.000;0.000;2023-02-01T00:34:33;26.85;;;24.55;;
66707;SDS011;53622;0.000;0.000;2023-02-01T00:37:02;26.00;;;23.65;;
66707;SDS011;53622;0.000;0.000;2023-02-01T00:39:32;26.02;;;23.73;;
66707;SDS011;53622;0.000;0.000;2023-02-01T00:42:01;25.77;;;23.58;;
66707;SDS011;53622;0.000;0.000;2023-02-01T00:44:32;29.77;;;27.15;;
66707;SDS011;53622;0.000;0.000;2023-02-01T00:47:02;27.08;;;24.80;;
66707;SDS011;53622;0.000;0.000;2023-02-01T00:49:31;27.27;;;24.88;;
66707;SDS011;53622;0.000;0.000;2023-02-01T00:52:01;26.00;;;23.70;;
66707;SDS011;53622;0.000;0.000;2023-02-01T00:54:30;27.13;;;24.75;;
66707;SDS011;53622;0.000;0.000;2023-02-01T00:56:59;28.48;;;25.95;;
66707;SDS011;53622;0.000;0.000;2023-02-01T00:59:30;28.42;;;26.00;;
66707;SDS011;53622;0.000;0.000;2023-02-01T01:01:59;29.55;;;26.85;;
66707;SDS011;53622;0.000;0.000;2023-02-01T01:04:29;26.83;;;24.45;;
66707;SDS011;53622;0.000;0.000;2023-02-01T01:06:58;26.98;;;24.65;;
66707;SDS011;53622;0.000;0.000;2023-02-01T01:09:27;26.83;;;24.52;;
66707;SDS011;53622;0.000;0.000;2023-02-01T01:11:57;30.45;;;27.80;;
66707;SDS011;53622;0.000;0.000;2023-02-01T01:14:32;27.05;;;24.77;;
66707;SDS011;53622;0.000;0.000;2023-02-01T01:17:02;27.48;;;25.08;;
66707;SDS011;53622;0.000;0.000;2023-02-01T01:19:31;27.85;;;25.35;;
66707;SDS011;53622;0.000;0.000;2023-02-01T01:22:00;26.38;;;24.10;;
66707;SDS011;53622;0.000;0.000;2023-02-01T01:24:30;27.90;;;25.45;;
66707;SDS011;53622;0.000;0.000;2023-02-01T01:26:59;28.55;;;26.02;;
66707;SDS011;53622;0.000;0.000;2023-02-01T01:29:28;28.08;;;25.70;;
66707;SDS011;53622;0.000;0.000;2023-02-01T01:31:59;28.10;;;25.67;;
66707;SDS011;53622;0.000;0.000;2023-02-01T01:34:28;27.30;;;24.90;;
66707;SDS011;53622;0.000;0.000;2023-02-01T01:36:58;27.08;;;24.77;;
66707;SDS011;53622;0.000;0.000;2023-02-01T01:39:27;26.77;;;24.48;;
66707;SDS011;53622;0.000;0.000;2023-02-01T01:41:57;29.25;;;26.73;;
66707;SDS011;53622;0.000;0.000;2023-02-01T01:47:30;27.02;;;24.52;;
66707;SDS011;53622;0.000;0.000;2023-02-01T01:50:03;32.17;;;29.38;;
66707;SDS011;53622;0.000;0.000;2023-02-01T01:52:35;27.45;;;25.05;;
66707;SDS011;53622;0.000;0.000;2023-02-01T01:55:05;27.02;;;24.67;;
66707;SDS011;53622;0.000;0.000;2023-02-01T01:57:38;27.83;;;25.33;;
66707;SDS011;53622;0.000;0.000;2023-02-01T02:00:12;30.45;;;27.83;;
66707;SDS011;53622;0.000;0.000;2023-02-01T02:02:46;27.90;;;25.45;;
66707;SDS011;53622;0.000;0.000;2023-02-01T02:05:17;27.98;;;25.60;;
66707;SDS011;53622;0.000;0.000;2023-02-01T02:07:48;29.13;;;26.42;;
66707;SDS011;53622;0.000;0.000;2023-02-01T02:10:19;29.02;;;26.55;;
66707;SDS011;53622;0.000;0.000;2023-02-01T02:13:09;28.15;;;25.67;;
66707;SDS011;53622;0.000;0.000;2023-02-01T02:15:40;32.05;;;29.23;;
66707;SDS011;53622;0.000;0.000;2023-02-01T02:18:17;31.40;;;28.60;;
66707;SDS011;53622;0.000;0.000;2023-02-01T02:21:04;34.72;;;31.63;;
66707;SDS011;53622;0.000;0.000;2023-02-01T02:23:47;28.58;;;26.08;;
66707;SDS011;53622;0.000;0.000;2023-02-01T02:26:46;28.40;;;25.90;;
66707;SDS011;53622;0.000;0.000;2023-02-01T02:29:44;27.50;;;25.17;;
66707;SDS011;53622;0.000;0.000;2023-02-01T02:35:45;32.75;;;29.75;;
66707;SDS011;53622;0.000;0.000;2023-02-01T02:38:22;29.95;;;27.30;;
66707;SDS011;53622;0.000;0.000;2023-02-01T02:41:00;28.27;;;25.77;;
66707;SDS011;53622;0.000;0.000;2023-02-01T02:43:37;28.95;;;26.45;;
66707;SDS011;53622;0.000;0.000;2023-02-01T02:46:33;29.60;;;26.80;;
66707;SDS011;53622;0.000;0.000;2023-02-01T02:49:27;28.85;;;26.35;;
66707;SDS011;53622;0.000;0.000;2023-02-01T02:52:04;31.60;;;28.67;;
66707;SDS011;53622;0.000;0.000;2023-02-01T02:54:55;31.15;;;28.45;;
66707;SDS011;53622;0.000;0.000;2023-02-01T02:57:27;28.70;;;26.20;;
66707;SDS011;53622;0.000;0.000;2023-02-01T03:00:16;30.15;;;27.55;;
66707;SDS011;53622;0.000;0.000;2023-02-01T03:03:04;29.58;;;26.98;;
66707;SDS011;53622;0.000;0.000;2023-02-01T03:05:54;30.35;;;27.55;;
66707;SDS011;53622;0.000;0.000;2023-02-01T03:08:24;30.05;;;27.45;;
66707;SDS011;53622;0.000;0.000;2023-02-01T03:10:56;29.73;;;27.08;;
66707;SDS011;53622;0.000;0.000;2023-02-01T03:13:30;36.38;;;33.13;;
66707;SDS011;53622;0.000;0.000;2023-02-01T03:16:05;28.80;;;26.23;;
66707;SDS011;53622;0.000;0.000;2023-02-01T03:18:40;30.23;;;27.63;;
66707;SDS011;53622;0.000;0.000;2023-02-01T03:21:19;30.85;;;28.05;;
66707;SDS011;53622;0.000;0.000;2023-02-01T03:23:52;37.05;;;33.80;;
66707;SDS011;53622;0.000;0.000;2023-02-01T03:26:26;31.45;;;28.80;;
66707;SDS011;53622;0.000;0.000;2023-02-01T03:29:00;29.20;;;26.60;;
66707;SDS011;53622;0.000;0.000;2023-02-01T03:31:37;32.00;;;29.20;;
66707;SDS011;53622;0.000;0.000;2023-02-01T03:34:06;33.63;;;30.65;;
66707;SDS011;53622;0.000;0.000;2023-02-01T03:36:38;32.38;;;29.55;;
66707;SDS011;53622;0.000;0.000;2023-02-01T03:39:13;34.95;;;31.88;;
66707;SDS011;53622;0.000;0.000;2023-02-01T03:41:48;33.17;;;30.27;;
66707;SDS011;53622;0.000;0.000;2023-02-01T03:44:22;28.95;;;26.38;;
66707;SDS011;53622;0.000;0.000;2023-02-01T03:46:55;33.47;;;30.48;;
66707;SDS011;53622;0.000;0.000;2023-02-01T03:49:28;32.53;;;29.52;;
66707;SDS011;53622;0.000;0.000;2023-02-01T03:52:04;31.23;;;28.52;;
66707;SDS011;53622;0.000;0.000;2023-02-01T03:54:36;31.50;;;28.67;;
66707;SDS011;53622;0.000;0.000;2023-02-01T03:57:07;31.65;;;28.95;;
66707;SDS011;53622;0.000;0.000;2023-02-01T03:59:42;33.17;;;30.25;;
66707;SDS011;53622;0.000;0.000;2023-02-01T04:02:13;35.72;;;32.47;;
66707;SDS011;53622;0.000;0.000;2023-02-01T04:04:43;36.30;;;33.00;;
66707;SDS011;53622;0.000;0.000;2023-02-01T04:07:17;36.83;;;33.63;;
66707;SDS011;53622;0.000;0.000;2023-02-01T04:09:46;35.80;;;32.65;;
66707;SDS011;53622;0.000;0.000;2023-02-01T04:12:15;32.17;;;29.38;;
66707;SDS011;53622;0.000;0.000;2023-02-01T04:14:45;33.35;;;30.38;;
66707;SDS011;53622;0.000;0.000;2023-02-01T04:17:14;29.30;;;26.90;;
66707;SDS011;53622;0.000;0.000;2023-02-01T04:19:43;34.92;;;31.73;;
66707;SDS011;53622;0.000;0.000;2023-02-01T04:22:13;32.65;;;29.70;;
66707;SDS011;53622;0.000;0.000;2023-02-01T04:24:46;31.17;;;28.48;;
66707;SDS011;53622;0.000;0.000;2023-02-01T04:27:16;36.60;;;33.28;;
66707;SDS011;53622;0.000;0.000;2023-02-01T04:29:45;33.17;;;30.27;;
66707;SDS011;53622;0.000;0.000;2023-02-01T04:32:16;36.20;;;32.83;;
66707;SDS011;53622;0.000;0.000;2023-02-01T04:34:47;38.38;;;34.88;;
66707;SDS011;53622;0.000;0.000;2023-02-01T04:37:16;33.65;;;30.67;;
66707;SDS011;53622;0.000;0.000;2023-02-01T04:39:46;32.53;;;29.63;;
66707;SDS011;53622;0.000;0.000;2023-02-01T04:42:16;33.25;;;30.30;;
66707;SDS011;53622;0.000;0.000;2023-02-01T04:44:45;30.05;;;27.45;;
66707;SDS011;53622;0.000;0.000;2023-02-01T04:47:14;33.25;;;30.25;;
66707;SDS011;53622;0.000;0.000;2023-02-01T04:49:44;33.20;;;30.13;;
66707;SDS011;53622;0.000;0.000;2023-02-01T04:52:13;35.20;;;32.00;;
66707;SDS011;53622;0.000;0.000;2023-02-01T04:54:43;39.90;;;36.13;;
66707;SDS011;53622;0.000;0.000;2023-02-01T04:57:13;38.08;;;34.75;;
66707;SDS011;53622;0.000;0.000;2023-02-01T04:59:42;35.28;;;32.17;;
66707;SDS011;53622;0.000;0.000;2023-02-01T05:02:12;34.55;;;31.42;;
66707;SDS011;53622;0.000;0.000;2023-02-01T05:04:41;38.50;;;35.05;;
66707;SDS011;53622;0.000;0.000;2023-02-01T05:07:10;31.38;;;28.63;;
66707;SDS011;53622;0.000;0.000;2023-02-01T05:09:40;36.92;;;33.58;;
66707;SDS011;53622;0.000;0.000;2023-02-01T05:12:09;33.33;;;30.40;;
66707;SDS011;53622;0.000;0.000;2023-02-01T05:14:57;33.53;;;30.52;;
66707;SDS011;53622;0.000;0.000;2023-02-01T05:17:27;34.00;;;30.90;;
66707;SDS011;53622;0.000;0.000;2023-02-01T05:19:56;41.78;;;38.05;;
66707;SDS011;53622;0.000;0.000;2023-02-01T05:22:25;37.70;;;34.28;;
66707;SDS011;53622;0.000;0.000;2023-02-01T05:24:55;39.00;;;35.50;;
66707;SDS011;53622;0.000;0.000;2023-02-01T05:27:24;38.08;;;34.67;;
66707;SDS011;53622;0.000;0.000;2023-02-01T05:29:53;33.22;;;30.23;;
66707;SDS011;53622;0.000;0.000;2023-02-01T05:32:24;43.97;;;40.05;;
66707;SDS011;53622;0.000;0.000;2023-02-01T05:34:54;37.90;;;34.40;;
66707;SDS011;53622;0.000;0.000;2023-02-01T05:37:23;36.63;;;33.35;;
66707;SDS011;53622;0.000;0.000;2023-02-01T05:39:52;38.05;;;34.70;;
66707;SDS011;53622;0.000;0.000;2023-02-01T05:42:22;37.28;;;33.88;;
66707;SDS011;53622;0.000;0.000;2023-02-01T05:44:51;36.97;;;33.65;;
66707;SDS011;53622;0.000;0.000;2023-02-01T05:47:20;39.80;;;36.25;;
66707;SDS011;53622;0.000;0.000;2023-02-01T05:49:51;39.70;;;36.17;;
66707;SDS011;53622;0.000;0.000;2023-02-01T05:52:20;42.95;;;39.15;;
66707;SDS011;53622;0.000;0.000;2023-02-01T05:54:49;41.00;;;37.30;;
66707;SDS011;53622;0.000;0.000;2023-02-01T05:57:19;36.67;;;33.45;;
66707;SDS011;53622;0.000;0.000;2023-02-01T05:59:49;44.17;;;40.17;;
66707;SDS011;53622;0.000;0.000;2023-02-01T06:02:18;40.93;;;37.20;;
66707;SDS011;53622;0.000;0.000;2023-02-01T06:04:49;45.63;;;41.50;;
66707;SDS011;53622;0.000;0.000;2023-02-01T06:07:19;39.13;;;35.63;;
66707;SDS011;53622;0.000;0.000;2023-02-01T06:09:49;41.42;;;37.65;;
66707;SDS011;53622;0.000;0.000;2023-02-01T06:12:18;45.45;;;41.40;;
66707;SDS011;53622;0.000;0.000;2023-02-01T06:14:47;44.03;;;40.13;;
66707;SDS011;53622;0.000;0.000;2023-02-01T06:17:17;40.20;;;36.50;;
66707;SDS011;53622;0.000;0.000;2023-02-01T06:19:46;34.33;;;30.70;;
66707;SDS011;53622;0.000;0.000;2023-02-01T06:22:17;38.97;;;33.13;;
66707;SDS011;53622;0.000;0.000;2023-02-01T06:24:47;36.95;;;33.10;;
66707;SDS011;53622;0.000;0.000;2023-02-01T06:27:16;32.97;;;29.63;;
66707;SDS011;53622;0.000;0.000;2023-02-01T06:29:45;34.60;;;25.98;;
66707;SDS011;53622;0.000;0.000;2023-02-01T06:32:15;28.55;;;25.65;;
66707;SDS011;53622;0.000;0.000;2023-02-01T06:34:45;26.85;;;24.38;;
66707;SDS011;53622;0.000;0.000;2023-02-01T06:37:14;26.63;;;23.83;;
66707;SDS011;53622;0.000;0.000;2023-02-01T06:39:45;25.23;;;22.73;;
66707;SDS011;53622;0.000;0.000;2023-02-01T06:42:15;24.55;;;21.95;;
66707;SDS011;53622;0.000;0.000;2023-02-01T06:44:44;24.10;;;21.70;;
66707;SDS011;53622;0.000;0.000;2023-02-01T06:47:13;24.48;;;22.13;;
66707;SDS011;53622;0.000;0.000;2023-02-01T06:49:43;23.83;;;21.48;;
66707;SDS011;53622;0.000;0.000;2023-02-01T06:52:12;23.23;;;20.95;;
66707;SDS011;53622;0.000;0.000;2023-02-01T06:54:42;24.00;;;21.30;;
66707;SDS011;53622;0.000;0.000;2023-02-01T06:57:13;21.63;;;19.48;;
66707;SDS011;53622;0.000;0.000;2023-02-01T06:59:43;22.08;;;19.98;;
66707;SDS011;53622;0.000;0.000;2023-02-01T07:02:12;20.25;;;18.35;;
66707;SDS011;53622;0.000;0.000;2023-02-01T07:04:42;20.23;;;18.13;;
66707;SDS011;53622;0.000;0.000;2023-02-01T07:07:11;21.67;;;19.50;;
66707;SDS011;53622;0.000;0.000;2023-02-01T07:09:41;21.50;;;18.15;;
66707;SDS011;53622;0.000;0.000;2023-02-01T07:12:10;19.15;;;16.95;;
66707;SDS011;53622;0.000;0.000;2023-02-01T07:14:41;18.52;;;16.70;;
66707;SDS011;53622;0.000;0.000;2023-02-01T07:17:11;20.35;;;16.90;;
66707;SDS011;53622;0.000;0.000;2023-02-01T07:19:40;17.67;;;15.82;;
66707;SDS011;53622;0.000;0.000;2023-02-01T07:22:09;21.70;;;15.95;;
66707;SDS011;53622;0.000;0.000;2023-02-01T07:24:39;22.23;;;15.60;;
66707;SDS011;53622;0.000;0.000;2023-02-01T07:27:08;24.52;;;15.88;;
66707;SDS011;53622;0.000;0.000;2023-02-01T07:29:39;34.80;;;16.13;;
66707;SDS011;53622;0.000;0.000;2023-02-01T07:32:09;31.30;;;15.50;;
66707;SDS011;53622;0.000;0.000;2023-02-01T07:34:38;27.55;;;14.45;;
66707;SDS011;53622;0.000;0.000;2023-02-01T07:37:07;34.05;;;15.25;;
66707;SDS011;53622;0.000;0.000;2023-02-01T07:39:37;29.75;;;14.57;;
66707;SDS011;53622;0.000;0.000;2023-02-01T07:42:06;22.25;;;13.32;;
66707;SDS011;53622;0.000;0.000;2023-02-01T07:44:35;18.33;;;13.25;;
66707;SDS011;53622;0.000;0.000;2023-02-01T07:47:06;20.50;;;13.20;;
66707;SDS011;53622;0.000;0.000;2023-02-01T07:49:35;17.70;;;12.15;;
66707;SDS011;53622;0.000;0.000;2023-02-01T07:52:05;17.13;;;13.10;;
66707;SDS011;53622;0.000;0.000;2023-02-01T07:54:35;17.27;;;12.43;;
66707;SDS011;53622;0.000;0.000;2023-02-01T07:57:05;15.65;;;12.38;;
66707;SDS011;53622;0.000;0.000;2023-02-01T07:59:36;14.07;;;11.02;;
66707;SDS011;53622;0.000;0.000;2023-02-01T08:02:26;16.35;;;11.10;;
66707;SDS011;53622;0.000;0.000;2023-02-01T08:04:56;17.35;;;11.73;;
66707;SDS011;53622;0.000;0.000;2023-02-01T08:07:25;15.10;;;11.60;;
66707;SDS011;53622;0.000;0.000;2023-02-01T08:09:54;12.43;;;10.82;;
66707;SDS011;53622;0.000;0.000;2023-02-01T08:12:24;12.63;;;11.30;;
66707;SDS011;53622;0.000;0.000;2023-02-01T08:14:54;11.98;;;10.20;;
66707;SDS011;53622;0.000;0.000;2023-02-01T08:17:23;14.10;;;9.93;;
66707;SDS011;53622;0.000;0.000;2023-02-01T08:19:54;12.98;;;10.68;;
66707;SDS011;53622;0.000;0.000;2023-02-01T08:22:25;10.55;;;9.45;;
66707;SDS011;53622;0.000;0.000;2023-02-01T08:24:54;10.82;;;9.80;;
66707;SDS011;53622;0.000;0.000;2023-02-01T08:27:28;12.17;;;9.43;;
66707;SDS011;53622;0.000;0.000;2023-02-01T08:29:57;10.48;;;9.48;;
66707;SDS011;53622;0.000;0.000;2023-02-01T08:32:27;12.23;;;9.70;;
66707;SDS011;53622;0.000;0.000;2023-02-01T08:34:58;11.90;;;8.80;;
66707;SDS011;53622;0.000;0.000;2023-02-01T08:37:27;10.60;;;8.77;;
66707;SDS011;53622;0.000;0.000;2023-02-01T08:39:56;13.05;;;9.07;;
66707;SDS011;53622;0.000;0.000;2023-02-01T08:42:26;11.68;;;8.70;;
66707;SDS011;53622;0.000;0.000;2023-02-01T08:45:13;9.77;;;8.77;;
66707;SDS011;53622;0.000;0.000;2023-02-01T08:47:42;9.23;;;8.23;;
66707;SDS011;53622;0.000;0.000;2023-02-01T08:50:13;8.75;;;7.93;;
66707;SDS011;53622;0.000;0.000;2023-02-01T08:52:43;8.48;;;7.65;;
66707;SDS011;53622;0.000;0.000;2023-02-01T08:55:12;9.65;;;7.50;;
66707;SDS011;53622;0.000;0.000;2023-02-01T08:57:42;9.15;;;7.32;;
66707;SDS011;53622;0.000;0.000;2023-02-01T09:00:13;8.20;;;7.45;;
66707;SDS011;53622;0.000;0.000;2023-02-01T09:02:44;7.30;;;6.60;;
66707;SDS011;53622;0.000;0.000;2023-02-01T09:05:15;8.47;;;6.77;;
66707;SDS011;53622;0.000;0.000;2023-02-01T09:07:49;7.67;;;6.90;;
66707;SDS011;53622;0.000;0.000;2023-02-01T09:10:18;6.93;;;6.23;;
66707;SDS011;53622;0.000;0.000;2023-02-01T09:13:00;7.38;;;6.68;;
66707;SDS011;53622;0.000;0.000;2023-02-01T09:15:30;7.05;;;6.38;;
66707;SDS011;53622;0.000;0.000;2023-02-01T09:17:59;7.75;;;6.43;;
66707;SDS011;53622;0.000;0.000;2023-02-01T09:20:30;7.22;;;6.00;;
66707;SDS011;53622;0.000;0.000;2023-02-01T09:22:59;6.35;;;5.75;;
66707;SDS011;53622;0.000;0.000;2023-02-01T09:25:29;6.70;;;6.10;;
66707;SDS011;53622;0.000;0.000;2023-02-01T09:27:58;8.57;;;6.75;;
66707;SDS011;53622;0.000;0.000;2023-02-01T09:30:28;7.63;;;6.03;;
66707;SDS011;53622;0.000;0.000;2023-02-01T09:32:57;8.45;;;5.70;;
66707;SDS011;53622;0.000;0.000;2023-02-01T09:35:26;6.83;;;6.13;;
66707;SDS011;53622;0.000;0.000;2023-02-01T09:37:57;6.63;;;5.63;;
66707;SDS011;53622;0.000;0.000;2023-02-01T09:40:27;5.72;;;5.20;;
66707;SDS011;53622;0.000;0.000;2023-02-01T09:43:11;5.57;;;5.07;;
66707;SDS011;53622;0.000;0.000;2023-02-01T09:45:51;7.18;;;5.32;;
66707;SDS011;53622;0.000;0.000;2023-02-01T09:48:31;6.00;;;5.07;;
66707;SDS011;53622;0.000;0.000;2023-02-01T09:51:09;6.03;;;5.40;;
66707;SDS011;53622;0.000;0.000;2023-02-01T09:53:46;5.43;;;4.93;;
66707;SDS011;53622;0.000;0.000;2023-02-01T09:56:24;6.65;;;5.07;;
66707;SDS011;53622;0.000;0.000;2023-02-01T09:59:01;6.13;;;4.88;;
66707;SDS011;53622;0.000;0.000;2023-02-01T10:01:36;5.30;;;4.80;;
66707;SDS011;53622;0.000;0.000;2023-02-01T10:04:07;6.00;;;4.90;;
66707;SDS011;53622;0.000;0.000;2023-02-01T10:06:42;5.60;;;5.05;;
66707;SDS011;53622;0.000;0.000;2023-02-01T10:09:25;5.00;;;4.50;;
66707;SDS011;53622;0.000;0.000;2023-02-01T10:18:20;4.85;;;4.35;;
66707;SDS011;53622;0.000;0.000;2023-02-01T10:21:04;5.13;;;4.63;;
66707;SDS011;53622;0.000;0.000;2023-02-01T10:26:53;5.05;;;4.55;;
66707;SDS011;53622;0.000;0.000;2023-02-01T10:29:30;5.17;;;4.73;;
66707;SDS011;53622;0.000;0.000;2023-02-01T10:32:10;5.80;;;4.22;;
66707;SDS011;53622;0.000;0.000;2023-02-01T10:34:42;4.55;;;4.15;;
66707;SDS011;53622;0.000;0.000;2023-02-01T10:37:17;4.53;;;4.13;;
66707;SDS011;53622;0.000;0.000;2023-02-01T10:39:53;4.90;;;4.35;;
66707;SDS011;53622;0.000;0.000;2023-02-01T10:42:26;4.97;;;4.47;;
66707;SDS011;53622;0.000;0.000;2023-02-01T10:44:57;4.37;;;3.97;;
66707;SDS011;53622;0.000;0.000;2023-02-01T10:47:31;4.72;;;3.80;;
66707;SDS011;53622;0.000;0.000;2023-02-01T10:50:02;4.68;;;4.03;;
66707;SDS011;53622;0.000;0.000;2023-02-01T10:52:43;4.60;;;4.20;;
66707;SDS011;53622;0.000;0.000;2023-02-01T10:55:27;4.15;;;3.67;;
66707;SDS011;53622;0.000;0.000;2023-02-01T10:58:02;4.05;;;3.65;;
66707;SDS011;53622;0.000;0.000;2023-02-01T11:00:36;3.58;;;3.28;;
66707;SDS011;53622;0.000;0.000;2023-02-01T11:06:03;3.70;;;3.33;;
66707;SDS011;53622;0.000;0.000;2023-02-01T11:08:42;4.72;;;3.50;;
66707;SDS011;53622;0.000;0.000;2023-02-01T11:11:13;3.90;;;3.60;;
66707;SDS011;53622;0.000;0.000;2023-02-01T11:13:50;4.53;;;3.67;;
66707;SDS011;53622;0.000;0.000;2023-02-01T11:16:23;5.37;;;3.53;;
66707;SDS011;53622;0.000;0.000;2023-02-01T11:19:01;7.25;;;3.72;;
66707;SDS011;53622;0.000;0.000;2023-02-01T11:21:32;5.00;;;3.70;;
66707;SDS011;53622;0.000;0.000;2023-02-01T11:24:02;4.85;;;3.42;;
66707;SDS011;53622;0.000;0.000;2023-02-01T11:26:34;5.15;;;3.55;;
66707;SDS011;53622;0.000;0.000;2023-02-01T11:29:11;4.03;;;3.70;;
66707;SDS011;53622;0.000;0.000;2023-02-01T11:31:44;5.35;;;3.35;;
66707;SDS011;53622;0.000;0.000;2023-02-01T11:34:15;6.65;;;3.38;;
66707;SDS011;53622;0.000;0.000;2023-02-01T11:36:49;4.70;;;3.38;;
66707;SDS011;53622;0.000;0.000;2023-02-01T11:39:23;3.97;;;3.08;;
66707;SDS011;53622;0.000;0.000;2023-02-01T11:41:55;3.85;;;3.08;;
66707;SDS011;53622;0.000;0.000;2023-02-01T11:44:32;4.50;;;3.55;;
66707;SDS011;53622;0.000;0.000;2023-02-01T11:47:19;3.78;;;3.30;;
66707;SDS011;53622;0.000;0.000;2023-02-01T11:49:54;4.82;;;3.15;;
66707;SDS011;53622;0.000;0.000;2023-02-01T11:52:28;4.43;;;2.97;;
66707;SDS011;53622;0.000;0.000;2023-02-01T11:55:15;2.90;;;2.70;;
66707;SDS011;53622;0.000;0.000;2023-02-01T11:58:01;4.53;;;3.00;;
66707;SDS011;53622;0.000;0.000;2023-02-01T12:00:54;2.95;;;2.65;;
66707;SDS011;53622;0.000;0.000;2023-02-01T12:06:40;4.25;;;2.78;;
66707;SDS011;53622;0.000;0.000;2023-02-01T12:09:24;2.47;;;2.22;;
66707;SDS011;53622;0.000;0.000;2023-02-01T12:12:05;3.67;;;2.53;;
66707;SDS011;53622;0.000;0.000;2023-02-01T12:14:51;4.85;;;2.35;;
66707;SDS011;53622;0.000;0.000;2023-02-01T12:20:36;4.00;;;2.38;;
66707;SDS011;53622;0.000;0.000;2023-02-01T12:23:28;3.35;;;2.55;;
66707;SDS011;53622;0.000;0.000;2023-02-01T12:26:35;2.22;;;2.03;;
66707;SDS011;53622;0.000;0.000;2023-02-01T12:29:22;2.50;;;2.30;;
66707;SDS011;53622;0.000;0.000;2023-02-01T12:32:06;3.03;;;2.25;;
66707;SDS011;53622;0.000;0.000;2023-02-01T12:34:59;2.72;;;2.30;;
66707;SDS011;53622;0.000;0.000;2023-02-01T12:37:50;3.17;;;1.95;;
66707;SDS011;53622;0.000;0.000;2023-02-01T12:40:43;2.40;;;1.95;;
66707;SDS011;53622;0.000;0.000;2023-02-01T12:43:55;2.15;;;2.00;;
66707;SDS011;53622;0.000;0.000;2023-02-01T12:46:41;2.65;;;2.05;;
66707;SDS011;53622;0.000;0.000;2023-02-01T12:49:41;3.55;;;2.05;;
66707;SDS011;53622;0.000;0.000;2023-02-01T12:52:27;2.03;;;1.92;;
66707;SDS011;53622;0.000;0.000;2023-02-01T12:55:06;2.22;;;1.65;;
66707;SDS011;53622;0.000;0.000;2023-02-01T12:57:44;6.90;;;3.80;;
66707;SDS011;53622;0.000;0.000;2023-02-01T13:00:19;7.45;;;4.20;;
66707;SDS011;53622;0.000;0.000;2023-02-01T13:02:56;11.18;;;10.10;;
66707;SDS011;53622;0.000;0.000;2023-02-01T13:05:31;9.00;;;6.28;;
66707;SDS011;53622;0.000;0.000;2023-02-01T13:08:10;13.73;;;10.38;;
66707;SDS011;53622;0.000;0.000;2023-02-01T13:10:43;13.82;;;12.43;;
66707;SDS011;53622;0.000;0.000;2023-02-01T13:13:18;13.48;;;11.98;;
66707;SDS011;53622;0.000;0.000;2023-02-01T13:16:02;12.48;;;11.23;;
66707;SDS011;53622;0.000;0.000;2023-02-01T13:18:46;12.15;;;10.98;;
66707;SDS011;53622;0.000;0.000;2023-02-01T13:21:20;11.98;;;10.43;;
66707;SDS011;53622;0.000;0.000;2023-02-01T13:23:54;13.27;;;12.00;;
66707;SDS011;53622;0.000;0.000;2023-02-01T13:26:23;14.15;;;12.50;;
66707;SDS011;53622;0.000;0.000;2023-02-01T13:28:54;14.63;;;13.23;;
66707;SDS011;53622;0.000;0.000;2023-02-01T13:31:29;14.60;;;13.02;;
66707;SDS011;53622;0.000;0.000;2023-02-01T13:37:30;17.10;;;13.90;;
66707;SDS011;53622;0.000;0.000;2023-02-01T13:40:17;15.13;;;13.65;;
66707;SDS011;53622;0.000;0.000;2023-02-01T13:42:59;16.38;;;14.85;;
66707;SDS011;53622;0.000;0.000;2023-02-01T13:45:31;16.75;;;15.18;;
66707;SDS011;53622;0.000;0.000;2023-02-01T13:48:04;15.57;;;14.07;;
66707;SDS011;53622;0.000;0.000;2023-02-01T13:50:43;15.48;;;14.07;;
66707;SDS011;53622;0.000;0.000;2023-02-01T13:53:18;15.48;;;14.07;;
66707;SDS011;53622;0.000;0.000;2023-02-01T13:55:56;18.70;;;16.90;;
66707;SDS011;53622;0.000;0.000;2023-02-01T13:58:30;17.90;;;16.10;;
66707;SDS011;53622;0.000;0.000;2023-02-01T14:04:05;17.75;;;16.15;;
66707;SDS011;53622;0.000;0.000;2023-02-01T14:06:56;18.13;;;16.40;;
66707;SDS011;53622;0.000;0.000;2023-02-01T14:09:32;20.75;;;18.75;;
66707;SDS011;53622;0.000;0.000;2023-02-01T14:15:21;18.20;;;16.45;;
66707;SDS011;53622;0.000;0.000;2023-02-01T14:17:53;18.42;;;16.75;;
66707;SDS011;53622;0.000;0.000;2023-02-01T14:23:29;17.25;;;15.65;;
66707;SDS011;53622;0.000;0.000;2023-02-01T14:26:09;18.75;;;17.00;;
66707;SDS011;53622;0.000;0.000;2023-02-01T14:28:52;17.83;;;16.23;;
66707;SDS011;53622;0.000;0.000;2023-02-01T14:34:28;19.42;;;17.63;;
66707;SDS011;53622;0.000;0.000;2023-02-01T14:37:01;18.13;;;16.42;;
66707;SDS011;53622;0.000;0.000;2023-02-01T14:39:37;16.85;;;15.35;;
66707;SDS011;53622;0.000;0.000;2023-02-01T14:42:19;18.55;;;16.80;;
66707;SDS011;53622;0.000;0.000;2023-02-01T14:44:54;18.63;;;16.83;;
66707;SDS011;53622;0.000;0.000;2023-02-01T14:47:30;20.52;;;18.67;;
66707;SDS011;53622;0.000;0.000;2023-02-01T14:53:01;20.45;;;18.45;;
66707;SDS011;53622;0.000;0.000;2023-02-01T14:55:40;20.58;;;18.55;;
66707;SDS011;53622;0.000;0.000;2023-02-01T14:58:14;20.42;;;18.33;;
66707;SDS011;53622;0.000;0.000;2023-02-01T15:00:50;20.40;;;18.40;;
66707;SDS011;53622;0.000;0.000;2023-02-01T15:09:07;21.23;;;19.23;;
66707;SDS011;53622;0.000;0.000;2023-02-01T15:11:59;21.13;;;19.13;;
66707;SDS011;53622;0.000;0.000;2023-02-01T15:14:32;22.17;;;20.08;;
66707;SDS011;53622;0.000;0.000;2023-02-01T15:17:15;22.55;;;20.45;;
66707;SDS011;53622;0.000;0.000;2023-02-01T15:19:54;23.88;;;21.67;;
66707;SDS011;53622;0.000;0.000;2023-02-01T15:22:24;20.60;;;18.80;;
66707;SDS011;53622;0.000;0.000;2023-02-01T15:24:54;20.75;;;18.85;;
66707;SDS011;53622;0.000;0.000;2023-02-01T15:27:25;26.23;;;23.73;;
66707;SDS011;53622;0.000;0.000;2023-02-01T15:30:04;26.58;;;24.08;;
66707;SDS011;53622;0.000;0.000;2023-02-01T15:32:37;22.23;;;20.05;;
66707;SDS011;53622;0.000;0.000;2023-02-01T15:38:19;23.20;;;21.10;;
66707;SDS011;53622;0.000;0.000;2023-02-01T15:41:11;22.90;;;20.70;;
66707;SDS011;53622;0.000;0.000;2023-02-01T15:43:43;27.40;;;24.80;;
66707;SDS011;53622;0.000;0.000;2023-02-01T15:46:19;23.10;;;20.85;;
66707;SDS011;53622;0.000;0.000;2023-02-01T15:48:52;21.80;;;19.83;;
66707;SDS011;53622;0.000;0.000;2023-02-01T15:51:23;22.10;;;20.10;;
66707;SDS011;53622;0.000;0.000;2023-02-01T15:53:55;25.48;;;22.95;;
66707;SDS011;53622;0.000;0.000;2023-02-01T15:56:27;24.85;;;22.35;;
66707;SDS011;53622;0.000;0.000;2023-02-01T15:59:03;23.13;;;20.92;;
66707;SDS011;53622;0.000;0.000;2023-02-01T16:01:40;23.13;;;21.02;;
66707;SDS011;53622;0.000;0.000;2023-02-01T16:04:15;22.85;;;20.67;;
66707;SDS011;53622;0.000;0.000;2023-02-01T16:06:48;24.60;;;22.30;;
66707;SDS011;53622;0.000;0.000;2023-02-01T16:09:20;24.15;;;21.75;;
66707;SDS011;53622;0.000;0.000;2023-02-01T16:11:55;22.90;;;20.67;;
66707;SDS011;53622;0.000;0.000;2023-02-01T16:14:26;23.50;;;21.15;;